sensor_id;sensor_type;location;lat;lon;timestamp;P1;durP1;ratioP1;P2;durP2;ratioP2
38693;SDS011;24447;43.460;25.744;2022-09-29T00:00:10;4.35;;;1.85;;
38693;SDS011;24447;43.460;25.744;2022-09-29T00:02:37;1.75;;;1.35;;
38693;SDS011;24447;43.460;25.744;2022-09-29T00:05:03;4.30;;;2.70;;
38693;SDS011;24447;43.460;25.744;2022-09-29T00:07:30;5.93;;;2.25;;
38693;SDS011;24447;43.460;25.744;2022-09-29T00:09:56;1.98;;;1.52;;
38693;SDS011;24447;43.460;25.744;2022-09-29T00:12:22;2.08;;;1.30;;
38693;SDS011;24447;43.460;25.744;2022-09-29T00:14:48;1.67;;;1.30;;
38693;SDS011;24447;43.460;25.744;2022-09-29T00:17:14;2.85;;;1.58;;
38693;SDS011;24447;43.460;25.744;2022-09-29T00:19:40;1.58;;;1.40;;
38693;SDS011;24447;43.460;25.744;2022-09-29T00:22:09;2.33;;;1.40;;
38693;SDS011;24447;43.460;25.744;2022-09-29T00:24:35;3.78;;;2.17;;
38693;SDS011;24447;43.460;25.744;2022-09-29T00:27:01;2.67;;;1.80;;
38693;SDS011;24447;43.460;25.744;2022-09-29T00:29:27;1.42;;;1.33;;
38693;SDS011;24447;43.460;25.744;2022-09-29T00:31:53;2.70;;;1.55;;
38693;SDS011;24447;43.460;25.744;2022-09-29T00:34:19;3.28;;;1.52;;
38693;SDS011;24447;43.460;25.744;2022-09-29T00:36:45;6.28;;;1.42;;
38693;SDS011;24447;43.460;25.744;2022-09-29T00:39:11;7.65;;;1.95;;
38693;SDS011;24447;43.460;25.744;2022-09-29T00:41:38;1.52;;;1.38;;
38693;SDS011;24447;43.460;25.744;2022-09-29T00:44:05;3.70;;;1.67;;
38693;SDS011;24447;43.460;25.744;2022-09-29T00:46:56;3.72;;;2.03;;
38693;SDS011;24447;43.460;25.744;2022-09-29T00:49:36;1.55;;;1.40;;
38693;SDS011;24447;43.460;25.744;2022-09-29T00:52:27;1.65;;;1.38;;
38693;SDS011;24447;43.460;25.744;2022-09-29T00:54:52;2.33;;;1.65;;
38693;SDS011;24447;43.460;25.744;2022-09-29T00:57:25;3.22;;;1.48;;
38693;SDS011;24447;43.460;25.744;2022-09-29T00:59:56;1.55;;;1.45;;
38693;SDS011;24447;43.460;25.744;2022-09-29T01:02:26;2.35;;;1.70;;
38693;SDS011;24447;43.460;25.744;2022-09-29T01:04:52;2.50;;;1.60;;
38693;SDS011;24447;43.460;25.744;2022-09-29T01:07:21;2.30;;;1.80;;
38693;SDS011;24447;43.460;25.744;2022-09-29T01:09:49;1.42;;;1.33;;
38693;SDS011;24447;43.460;25.744;2022-09-29T01:12:18;1.83;;;1.58;;
38693;SDS011;24447;43.460;25.744;2022-09-29T01:14:44;3.08;;;1.83;;
38693;SDS011;24447;43.460;25.744;2022-09-29T01:17:11;1.30;;;1.20;;
38693;SDS011;24447;43.460;25.744;2022-09-29T01:27:58;3.40;;;1.70;;
38693;SDS011;24447;43.460;25.744;2022-09-29T01:30:50;2.83;;;1.75;;
38693;SDS011;24447;43.460;25.744;2022-09-29T01:41:50;2.58;;;1.70;;
38693;SDS011;24447;43.460;25.744;2022-09-29T01:44:25;2.33;;;1.83;;
38693;SDS011;24447;43.460;25.744;2022-09-29T01:47:00;2.55;;;1.40;;
38693;SDS011;24447;43.460;25.744;2022-09-29T01:49:30;3.65;;;1.67;;
38693;SDS011;24447;43.460;25.744;2022-09-29T01:52:00;6.45;;;1.65;;
38693;SDS011;24447;43.460;25.744;2022-09-29T01:54:32;2.78;;;2.00;;
38693;SDS011;24447;43.460;25.744;2022-09-29T01:57:05;2.22;;;1.50;;
38693;SDS011;24447;43.460;25.744;2022-09-29T01:59:48;3.90;;;1.90;;
38693;SDS011;24447;43.460;25.744;2022-09-29T02:02:21;1.98;;;1.50;;
38693;SDS011;24447;43.460;25.744;2022-09-29T02:05:00;2.65;;;1.55;;
38693;SDS011;24447;43.460;25.744;2022-09-29T02:07:30;2.55;;;1.95;;
38693;SDS011;24447;43.460;25.744;2022-09-29T02:10:03;2.75;;;2.13;;
38693;SDS011;24447;43.460;25.744;2022-09-29T02:12:32;4.20;;;2.08;;
38693;SDS011;24447;43.460;25.744;2022-09-29T02:15:00;3.58;;;1.92;;
38693;SDS011;24447;43.460;25.744;2022-09-29T02:17:30;3.83;;;2.25;;
38693;SDS011;24447;43.460;25.744;2022-09-29T02:19:59;1.95;;;1.70;;
38693;SDS011;24447;43.460;25.744;2022-09-29T02:22:28;3.13;;;2.05;;
38693;SDS011;24447;43.460;25.744;2022-09-29T02:24:54;3.08;;;1.83;;
38693;SDS011;24447;43.460;25.744;2022-09-29T02:27:23;1.80;;;1.60;;
38693;SDS011;24447;43.460;25.744;2022-09-29T02:29:50;6.57;;;2.33;;
38693;SDS011;24447;43.460;25.744;2022-09-29T02:32:16;5.28;;;2.30;;
38693;SDS011;24447;43.460;25.744;2022-09-29T02:34:43;6.53;;;2.15;;
38693;SDS011;24447;43.460;25.744;2022-09-29T02:51:22;2.80;;;1.70;;
38693;SDS011;24447;43.460;25.744;2022-09-29T02:59:43;2.50;;;1.90;;
38693;SDS011;24447;43.460;25.744;2022-09-29T03:02:08;3.15;;;2.20;;
38693;SDS011;24447;43.460;25.744;2022-09-29T03:04:34;5.20;;;2.38;;
38693;SDS011;24447;43.460;25.744;2022-09-29T03:07:00;3.28;;;1.90;;
38693;SDS011;24447;43.460;25.744;2022-09-29T03:09:26;1.60;;;1.50;;
38693;SDS011;24447;43.460;25.744;2022-09-29T03:11:52;1.77;;;1.67;;
38693;SDS011;24447;43.460;25.744;2022-09-29T03:14:18;3.20;;;2.08;;
38693;SDS011;24447;43.460;25.744;2022-09-29T03:16:44;3.35;;;2.08;;
38693;SDS011;24447;43.460;25.744;2022-09-29T03:19:10;8.75;;;3.08;;
38693;SDS011;24447;43.460;25.744;2022-09-29T03:21:35;3.95;;;2.10;;
38693;SDS011;24447;43.460;25.744;2022-09-29T03:24:01;5.95;;;2.20;;
38693;SDS011;24447;43.460;25.744;2022-09-29T03:26:30;3.30;;;2.00;;
38693;SDS011;24447;43.460;25.744;2022-09-29T03:29:03;2.38;;;2.13;;
38693;SDS011;24447;43.460;25.744;2022-09-29T03:31:35;10.80;;;4.20;;
38693;SDS011;24447;43.460;25.744;2022-09-29T03:34:04;7.82;;;3.60;;
38693;SDS011;24447;43.460;25.744;2022-09-29T03:36:37;5.82;;;3.03;;
38693;SDS011;24447;43.460;25.744;2022-09-29T03:39:08;9.05;;;3.60;;
38693;SDS011;24447;43.460;25.744;2022-09-29T03:41:35;3.88;;;2.58;;
38693;SDS011;24447;43.460;25.744;2022-09-29T03:44:01;1.92;;;1.67;;
38693;SDS011;24447;43.460;25.744;2022-09-29T03:46:27;7.13;;;3.15;;
38693;SDS011;24447;43.460;25.744;2022-09-29T03:48:53;2.30;;;1.80;;
38693;SDS011;24447;43.460;25.744;2022-09-29T03:51:19;4.07;;;2.03;;
38693;SDS011;24447;43.460;25.744;2022-09-29T03:53:45;2.00;;;1.80;;
38693;SDS011;24447;43.460;25.744;2022-09-29T03:56:11;6.82;;;2.33;;
38693;SDS011;24447;43.460;25.744;2022-09-29T03:58:37;4.57;;;2.17;;
38693;SDS011;24447;43.460;25.744;2022-09-29T04:01:03;7.63;;;3.35;;
38693;SDS011;24447;43.460;25.744;2022-09-29T04:03:28;3.00;;;2.10;;
38693;SDS011;24447;43.460;25.744;2022-09-29T04:05:54;5.28;;;3.25;;
38693;SDS011;24447;43.460;25.744;2022-09-29T04:08:25;3.17;;;1.90;;
38693;SDS011;24447;43.460;25.744;2022-09-29T04:10:51;4.18;;;2.30;;
38693;SDS011;24447;43.460;25.744;2022-09-29T04:13:17;2.53;;;1.60;;
38693;SDS011;24447;43.460;25.744;2022-09-29T04:15:45;4.72;;;1.92;;
38693;SDS011;24447;43.460;25.744;2022-09-29T04:18:12;2.72;;;1.92;;
38693;SDS011;24447;43.460;25.744;2022-09-29T04:20:38;7.13;;;2.42;;
38693;SDS011;24447;43.460;25.744;2022-09-29T04:25:32;5.97;;;3.58;;
38693;SDS011;24447;43.460;25.744;2022-09-29T04:27:58;5.00;;;2.50;;
38693;SDS011;24447;43.460;25.744;2022-09-29T04:30:25;4.43;;;2.92;;
38693;SDS011;24447;43.460;25.744;2022-09-29T04:32:50;10.52;;;4.25;;
38693;SDS011;24447;43.460;25.744;2022-09-29T04:35:16;4.43;;;2.30;;
38693;SDS011;24447;43.460;25.744;2022-09-29T04:37:42;3.40;;;1.88;;
38693;SDS011;24447;43.460;25.744;2022-09-29T04:40:09;3.85;;;2.47;;
38693;SDS011;24447;43.460;25.744;2022-09-29T04:42:35;4.82;;;2.58;;
38693;SDS011;24447;43.460;25.744;2022-09-29T04:45:01;4.35;;;2.30;;
38693;SDS011;24447;43.460;25.744;2022-09-29T04:47:27;8.07;;;3.03;;
38693;SDS011;24447;43.460;25.744;2022-09-29T04:49:53;2.50;;;2.10;;
38693;SDS011;24447;43.460;25.744;2022-09-29T04:52:19;1.63;;;1.52;;
38693;SDS011;24447;43.460;25.744;2022-09-29T04:54:45;3.03;;;1.73;;
38693;SDS011;24447;43.460;25.744;2022-09-29T04:57:11;3.45;;;1.83;;
38693;SDS011;24447;43.460;25.744;2022-09-29T04:59:37;1.98;;;1.25;;
38693;SDS011;24447;43.460;25.744;2022-09-29T05:02:03;3.25;;;1.92;;
38693;SDS011;24447;43.460;25.744;2022-09-29T05:04:29;1.67;;;1.58;;
38693;SDS011;24447;43.460;25.744;2022-09-29T05:06:54;4.63;;;2.25;;
38693;SDS011;24447;43.460;25.744;2022-09-29T05:09:20;3.15;;;1.70;;
38693;SDS011;24447;43.460;25.744;2022-09-29T05:11:46;2.20;;;2.03;;
38693;SDS011;24447;43.460;25.744;2022-09-29T05:14:12;2.95;;;1.92;;
38693;SDS011;24447;43.460;25.744;2022-09-29T05:16:38;9.73;;;1.98;;
38693;SDS011;24447;43.460;25.744;2022-09-29T05:19:04;3.45;;;2.70;;
38693;SDS011;24447;43.460;25.744;2022-09-29T05:21:30;2.45;;;2.17;;
38693;SDS011;24447;43.460;25.744;2022-09-29T05:23:56;4.35;;;2.75;;
38693;SDS011;24447;43.460;25.744;2022-09-29T05:26:22;4.63;;;2.30;;
38693;SDS011;24447;43.460;25.744;2022-09-29T05:28:48;3.80;;;2.25;;
38693;SDS011;24447;43.460;25.744;2022-09-29T05:31:16;3.42;;;2.22;;
38693;SDS011;24447;43.460;25.744;2022-09-29T05:33:42;6.25;;;2.53;;
38693;SDS011;24447;43.460;25.744;2022-09-29T05:36:08;6.97;;;3.80;;
38693;SDS011;24447;43.460;25.744;2022-09-29T05:38:36;3.78;;;2.60;;
38693;SDS011;24447;43.460;25.744;2022-09-29T05:41:03;7.65;;;2.15;;
38693;SDS011;24447;43.460;25.744;2022-09-29T05:43:30;3.67;;;2.20;;
38693;SDS011;24447;43.460;25.744;2022-09-29T05:46:03;5.60;;;2.10;;
38693;SDS011;24447;43.460;25.744;2022-09-29T05:48:30;4.32;;;1.98;;
38693;SDS011;24447;43.460;25.744;2022-09-29T05:50:57;3.70;;;2.65;;
38693;SDS011;24447;43.460;25.744;2022-09-29T05:53:23;3.50;;;2.22;;
38693;SDS011;24447;43.460;25.744;2022-09-29T05:55:49;5.85;;;2.92;;
38693;SDS011;24447;43.460;25.744;2022-09-29T05:58:15;15.32;;;3.17;;
38693;SDS011;24447;43.460;25.744;2022-09-29T06:00:41;7.18;;;3.60;;
38693;SDS011;24447;43.460;25.744;2022-09-29T06:03:08;4.72;;;2.78;;
38693;SDS011;24447;43.460;25.744;2022-09-29T06:05:36;11.70;;;2.67;;
38693;SDS011;24447;43.460;25.744;2022-09-29T06:08:03;6.43;;;3.70;;
38693;SDS011;24447;43.460;25.744;2022-09-29T06:10:30;4.07;;;2.40;;
38693;SDS011;24447;43.460;25.744;2022-09-29T06:12:56;3.97;;;2.63;;
38693;SDS011;24447;43.460;25.744;2022-09-29T06:15:22;7.38;;;2.05;;
38693;SDS011;24447;43.460;25.744;2022-09-29T06:17:56;5.78;;;3.05;;
38693;SDS011;24447;43.460;25.744;2022-09-29T06:20:22;5.20;;;2.70;;
38693;SDS011;24447;43.460;25.744;2022-09-29T06:22:48;4.60;;;2.50;;
38693;SDS011;24447;43.460;25.744;2022-09-29T06:25:15;6.00;;;2.35;;
38693;SDS011;24447;43.460;25.744;2022-09-29T06:27:41;6.40;;;3.38;;
38693;SDS011;24447;43.460;25.744;2022-09-29T06:30:07;14.13;;;6.82;;
38693;SDS011;24447;43.460;25.744;2022-09-29T06:32:34;15.80;;;8.45;;
38693;SDS011;24447;43.460;25.744;2022-09-29T06:35:01;35.35;;;21.02;;
38693;SDS011;24447;43.460;25.744;2022-09-29T06:37:46;31.48;;;15.10;;
38693;SDS011;24447;43.460;25.744;2022-09-29T06:40:12;7.35;;;4.07;;
38693;SDS011;24447;43.460;25.744;2022-09-29T06:42:38;7.75;;;2.65;;
38693;SDS011;24447;43.460;25.744;2022-09-29T06:45:05;3.15;;;2.42;;
38693;SDS011;24447;43.460;25.744;2022-09-29T06:47:31;6.72;;;3.15;;
38693;SDS011;24447;43.460;25.744;2022-09-29T06:49:57;5.78;;;3.15;;
38693;SDS011;24447;43.460;25.744;2022-09-29T06:52:26;3.92;;;2.58;;
38693;SDS011;24447;43.460;25.744;2022-09-29T06:54:53;8.35;;;3.70;;
38693;SDS011;24447;43.460;25.744;2022-09-29T06:57:19;15.82;;;5.38;;
38693;SDS011;24447;43.460;25.744;2022-09-29T06:59:45;20.95;;;6.95;;
38693;SDS011;24447;43.460;25.744;2022-09-29T07:02:11;23.17;;;7.07;;
38693;SDS011;24447;43.460;25.744;2022-09-29T07:04:37;13.13;;;4.00;;
38693;SDS011;24447;43.460;25.744;2022-09-29T07:07:03;4.22;;;2.17;;
38693;SDS011;24447;43.460;25.744;2022-09-29T07:09:29;2.78;;;2.15;;
38693;SDS011;24447;43.460;25.744;2022-09-29T07:11:55;14.45;;;3.97;;
38693;SDS011;24447;43.460;25.744;2022-09-29T07:14:21;5.43;;;2.30;;
38693;SDS011;24447;43.460;25.744;2022-09-29T07:16:48;4.25;;;2.00;;
38693;SDS011;24447;43.460;25.744;2022-09-29T07:19:14;6.97;;;3.15;;
38693;SDS011;24447;43.460;25.744;2022-09-29T07:21:42;7.72;;;4.10;;
38693;SDS011;24447;43.460;25.744;2022-09-29T07:24:08;6.22;;;3.53;;
38693;SDS011;24447;43.460;25.744;2022-09-29T07:26:34;5.70;;;2.60;;
38693;SDS011;24447;43.460;25.744;2022-09-29T07:29:04;3.88;;;2.25;;
38693;SDS011;24447;43.460;25.744;2022-09-29T07:31:33;3.30;;;1.47;;
38693;SDS011;24447;43.460;25.744;2022-09-29T07:33:59;2.97;;;1.55;;
38693;SDS011;24447;43.460;25.744;2022-09-29T07:36:25;8.38;;;2.53;;
38693;SDS011;24447;43.460;25.744;2022-09-29T07:38:51;4.28;;;1.88;;
38693;SDS011;24447;43.460;25.744;2022-09-29T07:41:19;3.95;;;2.30;;
38693;SDS011;24447;43.460;25.744;2022-09-29T07:43:46;6.90;;;2.17;;
38693;SDS011;24447;43.460;25.744;2022-09-29T07:46:12;6.70;;;2.67;;
38693;SDS011;24447;43.460;25.744;2022-09-29T07:48:38;11.73;;;2.50;;
38693;SDS011;24447;43.460;25.744;2022-09-29T07:51:05;11.18;;;3.60;;
38693;SDS011;24447;43.460;25.744;2022-09-29T07:53:34;13.10;;;4.22;;
38693;SDS011;24447;43.460;25.744;2022-09-29T07:56:08;8.40;;;3.50;;
38693;SDS011;24447;43.460;25.744;2022-09-29T07:58:35;7.25;;;2.47;;
38693;SDS011;24447;43.460;25.744;2022-09-29T08:01:03;1.65;;;1.50;;
38693;SDS011;24447;43.460;25.744;2022-09-29T08:03:31;1.20;;;1.10;;
38693;SDS011;24447;43.460;25.744;2022-09-29T08:05:57;0.80;;;0.80;;
38693;SDS011;24447;43.460;25.744;2022-09-29T08:08:23;7.13;;;1.83;;
38693;SDS011;24447;43.460;25.744;2022-09-29T08:10:50;8.23;;;3.92;;
38693;SDS011;24447;43.460;25.744;2022-09-29T08:13:16;14.60;;;3.83;;
38693;SDS011;24447;43.460;25.744;2022-09-29T08:15:42;7.03;;;2.97;;
38693;SDS011;24447;43.460;25.744;2022-09-29T08:18:08;4.40;;;2.15;;
38693;SDS011;24447;43.460;25.744;2022-09-29T08:20:35;4.55;;;2.28;;
38693;SDS011;24447;43.460;25.744;2022-09-29T08:23:01;13.15;;;3.30;;
38693;SDS011;24447;43.460;25.744;2022-09-29T08:25:27;6.55;;;2.30;;
38693;SDS011;24447;43.460;25.744;2022-09-29T08:27:58;1.95;;;1.58;;
38693;SDS011;24447;43.460;25.744;2022-09-29T08:30:28;9.13;;;3.22;;
38693;SDS011;24447;43.460;25.744;2022-09-29T08:32:54;9.43;;;3.80;;
38693;SDS011;24447;43.460;25.744;2022-09-29T08:35:20;10.52;;;3.95;;
38693;SDS011;24447;43.460;25.744;2022-09-29T08:37:46;10.20;;;3.47;;
38693;SDS011;24447;43.460;25.744;2022-09-29T08:40:13;2.08;;;1.50;;
38693;SDS011;24447;43.460;25.744;2022-09-29T08:43:00;5.47;;;2.33;;
38693;SDS011;24447;43.460;25.744;2022-09-29T08:45:38;9.57;;;3.42;;
38693;SDS011;24447;43.460;25.744;2022-09-29T08:48:23;5.95;;;2.08;;
38693;SDS011;24447;43.460;25.744;2022-09-29T08:50:57;3.05;;;1.50;;
38693;SDS011;24447;43.460;25.744;2022-09-29T08:53:28;3.80;;;1.67;;
38693;SDS011;24447;43.460;25.744;2022-09-29T08:56:01;1.98;;;1.25;;
38693;SDS011;24447;43.460;25.744;2022-09-29T08:58:29;1.08;;;0.95;;
38693;SDS011;24447;43.460;25.744;2022-09-29T09:23:27;0.90;;;0.90;;
38693;SDS011;24447;43.460;25.744;2022-09-29T09:26:15;0.60;;;0.60;;
38693;SDS011;24447;43.460;25.744;2022-09-29T09:28:44;2.63;;;1.13;;
38693;SDS011;24447;43.460;25.744;2022-09-29T09:31:22;0.57;;;0.57;;
38693;SDS011;24447;43.460;25.744;2022-09-29T09:36:49;0.68;;;0.60;;
38693;SDS011;24447;43.460;25.744;2022-09-29T09:41:51;1.73;;;1.27;;
38693;SDS011;24447;43.460;25.744;2022-09-29T09:44:19;3.20;;;1.50;;
38693;SDS011;24447;43.460;25.744;2022-09-29T09:47:16;1.25;;;0.63;;
38693;SDS011;24447;43.460;25.744;2022-09-29T09:49:41;1.33;;;0.77;;
38693;SDS011;24447;43.460;25.744;2022-09-29T09:52:52;0.77;;;0.77;;
38693;SDS011;24447;43.460;25.744;2022-09-29T09:55:04;3.05;;;1.00;;
38693;SDS011;24447;43.460;25.744;2022-09-29T10:00:23;2.22;;;1.10;;
38693;SDS011;24447;43.460;25.744;2022-09-29T10:02:51;9.35;;;1.55;;
38693;SDS011;24447;43.460;25.744;2022-09-29T10:05:28;1.85;;;1.65;;
38693;SDS011;24447;43.460;25.744;2022-09-29T10:07:58;0.93;;;0.93;;
38693;SDS011;24447;43.460;25.744;2022-09-29T10:10:25;2.35;;;1.30;;
38693;SDS011;24447;43.460;25.744;2022-09-29T10:13:03;5.15;;;1.92;;
38693;SDS011;24447;43.460;25.744;2022-09-29T10:15:42;3.95;;;1.13;;
38693;SDS011;24447;43.460;25.744;2022-09-29T10:18:17;0.70;;;0.70;;
38693;SDS011;24447;43.460;25.744;2022-09-29T10:20:46;2.30;;;1.10;;
38693;SDS011;24447;43.460;25.744;2022-09-29T10:23:19;1.05;;;0.93;;
38693;SDS011;24447;43.460;25.744;2022-09-29T10:26:03;1.35;;;1.00;;
38693;SDS011;24447;43.460;25.744;2022-09-29T10:31:27;2.03;;;1.20;;
38693;SDS011;24447;43.460;25.744;2022-09-29T10:34:28;0.82;;;0.82;;
38693;SDS011;24447;43.460;25.744;2022-09-29T10:39:30;2.13;;;1.20;;
38693;SDS011;24447;43.460;25.744;2022-09-29T10:41:57;1.20;;;1.10;;
38693;SDS011;24447;43.460;25.744;2022-09-29T10:44:23;4.68;;;2.33;;
38693;SDS011;24447;43.460;25.744;2022-09-29T10:46:53;0.68;;;0.68;;
38693;SDS011;24447;43.460;25.744;2022-09-29T10:49:20;1.33;;;1.13;;
38693;SDS011;24447;43.460;25.744;2022-09-29T10:54:14;1.65;;;1.27;;
38693;SDS011;24447;43.460;25.744;2022-09-29T10:56:47;1.73;;;1.15;;
38693;SDS011;24447;43.460;25.744;2022-09-29T10:59:14;0.90;;;0.90;;
38693;SDS011;24447;43.460;25.744;2022-09-29T11:01:48;1.42;;;1.08;;
38693;SDS011;24447;43.460;25.744;2022-09-29T11:04:17;1.23;;;1.13;;
38693;SDS011;24447;43.460;25.744;2022-09-29T11:06:50;2.53;;;0.82;;
38693;SDS011;24447;43.460;25.744;2022-09-29T11:17:05;1.52;;;1.40;;
38693;SDS011;24447;43.460;25.744;2022-09-29T11:19:44;0.82;;;0.80;;
38693;SDS011;24447;43.460;25.744;2022-09-29T11:25:10;0.77;;;0.77;;
38693;SDS011;24447;43.460;25.744;2022-09-29T11:31:01;1.83;;;0.97;;
38693;SDS011;24447;43.460;25.744;2022-09-29T11:36:51;0.63;;;0.63;;
38693;SDS011;24447;43.460;25.744;2022-09-29T12:03:15;2.40;;;0.90;;
38693;SDS011;24447;43.460;25.744;2022-09-29T12:13:57;2.15;;;1.10;;
38693;SDS011;24447;43.460;25.744;2022-09-29T12:16:33;2.60;;;1.33;;
38693;SDS011;24447;43.460;25.744;2022-09-29T12:19:03;2.47;;;1.25;;
38693;SDS011;24447;43.460;25.744;2022-09-29T12:21:40;0.80;;;0.80;;
38693;SDS011;24447;43.460;25.744;2022-09-29T12:24:13;2.42;;;1.17;;
38693;SDS011;24447;43.460;25.744;2022-09-29T12:26:52;2.72;;;0.63;;
38693;SDS011;24447;43.460;25.744;2022-09-29T12:32:07;3.30;;;1.42;;
38693;SDS011;24447;43.460;25.744;2022-09-29T12:34:50;4.97;;;1.48;;
38693;SDS011;24447;43.460;25.744;2022-09-29T12:40:10;2.72;;;1.05;;
38693;SDS011;24447;43.460;25.744;2022-09-29T12:42:52;2.70;;;1.05;;
38693;SDS011;24447;43.460;25.744;2022-09-29T12:48:06;2.55;;;1.20;;
38693;SDS011;24447;43.460;25.744;2022-09-29T12:50:43;1.15;;;0.93;;
38693;SDS011;24447;43.460;25.744;2022-09-29T12:56:09;31.58;;;4.72;;
38693;SDS011;24447;43.460;25.744;2022-09-29T12:58:44;2.05;;;0.98;;
38693;SDS011;24447;43.460;25.744;2022-09-29T13:06:30;2.38;;;1.48;;
38693;SDS011;24447;43.460;25.744;2022-09-29T13:20:44;1.27;;;1.13;;
38693;SDS011;24447;43.460;25.744;2022-09-29T13:26:25;2.60;;;1.35;;
38693;SDS011;24447;43.460;25.744;2022-09-29T13:28:55;0.80;;;0.80;;
38693;SDS011;24447;43.460;25.744;2022-09-29T13:31:26;4.35;;;1.60;;
38693;SDS011;24447;43.460;25.744;2022-09-29T13:33:55;5.93;;;2.05;;
38693;SDS011;24447;43.460;25.744;2022-09-29T13:36:22;2.35;;;1.63;;
38693;SDS011;24447;43.460;25.744;2022-09-29T13:38:55;7.57;;;3.30;;
38693;SDS011;24447;43.460;25.744;2022-09-29T13:51:41;4.03;;;1.73;;
38693;SDS011;24447;43.460;25.744;2022-09-29T13:54:23;13.07;;;5.78;;
38693;SDS011;24447;43.460;25.744;2022-09-29T13:59:40;6.53;;;3.47;;
38693;SDS011;24447;43.460;25.744;2022-09-29T14:02:19;3.38;;;2.10;;
38693;SDS011;24447;43.460;25.744;2022-09-29T14:10:17;3.78;;;2.10;;
38693;SDS011;24447;43.460;25.744;2022-09-29T14:12:57;1.35;;;1.25;;
38693;SDS011;24447;43.460;25.744;2022-09-29T14:15:27;1.15;;;1.05;;
38693;SDS011;24447;43.460;25.744;2022-09-29T14:17:58;2.50;;;1.33;;
38693;SDS011;24447;43.460;25.744;2022-09-29T14:20:28;1.45;;;1.35;;
38693;SDS011;24447;43.460;25.744;2022-09-29T14:23:06;5.88;;;2.95;;
38693;SDS011;24447;43.460;25.744;2022-09-29T14:28:11;1.50;;;1.40;;
38693;SDS011;24447;43.460;25.744;2022-09-29T14:30:41;4.07;;;1.77;;
38693;SDS011;24447;43.460;25.744;2022-09-29T14:33:16;2.55;;;1.48;;
38693;SDS011;24447;43.460;25.744;2022-09-29T14:35:53;1.55;;;1.38;;
38693;SDS011;24447;43.460;25.744;2022-09-29T14:38:28;2.92;;;1.80;;
38693;SDS011;24447;43.460;25.744;2022-09-29T14:41:14;2.10;;;1.90;;
38693;SDS011;24447;43.460;25.744;2022-09-29T14:52:14;22.92;;;12.57;;
38693;SDS011;24447;43.460;25.744;2022-09-29T15:08:36;17.52;;;8.82;;
38693;SDS011;24447;43.460;25.744;2022-09-29T15:11:19;15.38;;;7.25;;
38693;SDS011;24447;43.460;25.744;2022-09-29T15:13:54;26.23;;;11.52;;
38693;SDS011;24447;43.460;25.744;2022-09-29T15:19:17;7.38;;;3.47;;
38693;SDS011;24447;43.460;25.744;2022-09-29T15:24:26;3.88;;;2.60;;
38693;SDS011;24447;43.460;25.744;2022-09-29T15:26:59;6.22;;;2.65;;
38693;SDS011;24447;43.460;25.744;2022-09-29T15:29:27;6.15;;;2.40;;
38693;SDS011;24447;43.460;25.744;2022-09-29T15:31:53;6.53;;;3.28;;
38693;SDS011;24447;43.460;25.744;2022-09-29T15:34:20;7.78;;;2.47;;
38693;SDS011;24447;43.460;25.744;2022-09-29T15:36:47;5.93;;;2.30;;
38693;SDS011;24447;43.460;25.744;2022-09-29T15:42:10;2.42;;;2.10;;
38693;SDS011;24447;43.460;25.744;2022-09-29T15:44:39;7.63;;;1.92;;
38693;SDS011;24447;43.460;25.744;2022-09-29T15:47:20;7.88;;;1.98;;
38693;SDS011;24447;43.460;25.744;2022-09-29T15:49:49;4.40;;;1.80;;
38693;SDS011;24447;43.460;25.744;2022-09-29T15:52:16;15.93;;;3.75;;
38693;SDS011;24447;43.460;25.744;2022-09-29T15:54:48;11.55;;;3.13;;
38693;SDS011;24447;43.460;25.744;2022-09-29T15:57:28;2.70;;;1.92;;
38693;SDS011;24447;43.460;25.744;2022-09-29T16:05:30;2.40;;;1.15;;
38693;SDS011;24447;43.460;25.744;2022-09-29T16:08:02;2.47;;;1.60;;
38693;SDS011;24447;43.460;25.744;2022-09-29T16:10:30;5.93;;;1.77;;
38693;SDS011;24447;43.460;25.744;2022-09-29T16:12:58;1.58;;;1.48;;
38693;SDS011;24447;43.460;25.744;2022-09-29T16:15:32;2.58;;;1.20;;
38693;SDS011;24447;43.460;25.744;2022-09-29T16:18:06;1.42;;;1.33;;
38693;SDS011;24447;43.460;25.744;2022-09-29T16:20:38;6.18;;;2.25;;
38693;SDS011;24447;43.460;25.744;2022-09-29T16:23:07;6.85;;;2.58;;
38693;SDS011;24447;43.460;25.744;2022-09-29T16:25:40;2.25;;;1.35;;
38693;SDS011;24447;43.460;25.744;2022-09-29T16:28:08;3.45;;;1.80;;
38693;SDS011;24447;43.460;25.744;2022-09-29T16:31:02;2.17;;;1.95;;
38693;SDS011;24447;43.460;25.744;2022-09-29T16:33:31;8.27;;;2.50;;
38693;SDS011;24447;43.460;25.744;2022-09-29T16:36:07;6.82;;;3.35;;
38693;SDS011;24447;43.460;25.744;2022-09-29T16:38:38;8.30;;;3.95;;
38693;SDS011;24447;43.460;25.744;2022-09-29T16:46:41;22.05;;;3.50;;
38693;SDS011;24447;43.460;25.744;2022-09-29T16:49:21;6.50;;;3.00;;
38693;SDS011;24447;43.460;25.744;2022-09-29T16:52:00;2.85;;;1.67;;
38693;SDS011;24447;43.460;25.744;2022-09-29T16:54:37;4.07;;;2.63;;
38693;SDS011;24447;43.460;25.744;2022-09-29T16:57:22;7.28;;;2.90;;
38693;SDS011;24447;43.460;25.744;2022-09-29T16:59:54;7.60;;;2.33;;
38693;SDS011;24447;43.460;25.744;2022-09-29T17:02:29;1.93;;;1.73;;
38693;SDS011;24447;43.460;25.744;2022-09-29T17:04:55;2.47;;;1.83;;
38693;SDS011;24447;43.460;25.744;2022-09-29T17:07:23;2.55;;;1.40;;
38693;SDS011;24447;43.460;25.744;2022-09-29T17:09:59;2.65;;;1.80;;
38693;SDS011;24447;43.460;25.744;2022-09-29T17:12:26;6.57;;;2.35;;
38693;SDS011;24447;43.460;25.744;2022-09-29T17:14:53;2.30;;;1.60;;
38693;SDS011;24447;43.460;25.744;2022-09-29T17:17:20;2.05;;;1.77;;
38693;SDS011;24447;43.460;25.744;2022-09-29T17:19:51;2.83;;;1.35;;
38693;SDS011;24447;43.460;25.744;2022-09-29T17:24:54;2.83;;;2.38;;
38693;SDS011;24447;43.460;25.744;2022-09-29T17:27:20;4.40;;;2.35;;
38693;SDS011;24447;43.460;25.744;2022-09-29T17:30:05;3.17;;;1.92;;
38693;SDS011;24447;43.460;25.744;2022-09-29T17:32:31;3.60;;;2.08;;
38693;SDS011;24447;43.460;25.744;2022-09-29T17:34:57;5.22;;;2.35;;
38693;SDS011;24447;43.460;25.744;2022-09-29T17:37:23;4.25;;;2.58;;
38693;SDS011;24447;43.460;25.744;2022-09-29T17:39:50;3.33;;;2.75;;
38693;SDS011;24447;43.460;25.744;2022-09-29T17:42:16;4.10;;;1.92;;
38693;SDS011;24447;43.460;25.744;2022-09-29T17:44:42;3.80;;;2.20;;
38693;SDS011;24447;43.460;25.744;2022-09-29T17:47:15;5.07;;;2.15;;
38693;SDS011;24447;43.460;25.744;2022-09-29T17:49:42;2.33;;;1.90;;
38693;SDS011;24447;43.460;25.744;2022-09-29T17:52:09;3.05;;;2.25;;
38693;SDS011;24447;43.460;25.744;2022-09-29T17:54:39;3.85;;;2.03;;
38693;SDS011;24447;43.460;25.744;2022-09-29T17:57:05;5.57;;;2.33;;
38693;SDS011;24447;43.460;25.744;2022-09-29T17:59:32;3.95;;;2.33;;
38693;SDS011;24447;43.460;25.744;2022-09-29T18:02:08;5.35;;;2.25;;
38693;SDS011;24447;43.460;25.744;2022-09-29T18:04:38;3.47;;;2.35;;
38693;SDS011;24447;43.460;25.744;2022-09-29T18:07:12;3.90;;;2.25;;
38693;SDS011;24447;43.460;25.744;2022-09-29T18:09:39;2.78;;;1.70;;
38693;SDS011;24447;43.460;25.744;2022-09-29T18:12:06;4.55;;;2.17;;
38693;SDS011;24447;43.460;25.744;2022-09-29T18:14:32;3.58;;;1.92;;
38693;SDS011;24447;43.460;25.744;2022-09-29T18:17:00;3.30;;;1.67;;
38693;SDS011;24447;43.460;25.744;2022-09-29T18:19:29;6.45;;;2.58;;
38693;SDS011;24447;43.460;25.744;2022-09-29T18:21:55;3.10;;;1.75;;
38693;SDS011;24447;43.460;25.744;2022-09-29T18:24:22;2.55;;;2.33;;
38693;SDS011;24447;43.460;25.744;2022-09-29T18:26:48;1.77;;;1.58;;
38693;SDS011;24447;43.460;25.744;2022-09-29T18:29:14;3.53;;;2.22;;
38693;SDS011;24447;43.460;25.744;2022-09-29T18:31:41;4.85;;;2.15;;